Terminal Aerodrome Forecast
Issued by NWS

Home | Current Version | Previous Version | Text Only | Print | Product List | Glossary On
Versions: 1 2 3 4 5 6 7 8 9 10 11 12 13 14 15 16 17 18 19 20 21 22 23 24 25 26 27 28 29 30 31 32 33 34 35 36 37
000
FTUS45 KGJT 251735
TAFASE
TAF
KASE 251735Z 2518/2618 35008KT P6SM VCSH SCT080 BKN110
      TEMPO 2520/2524 VRB15G25KT -TSRA FEW050 BKN080CB
     FM260000 14006KT P6SM VCTS BKN090CB BKN140
     FM260400 20005KT P6SM SCT090 BKN150
     FM261600 35006KT P6SM FEW120=

USA.gov is the U.S. government's official web portal to all federal, state and local government web resources and services.